Time;durP1;ratioP1;P1;durP2;ratioP2;P2;SDS_P1;SDS_P2;PMS_P1;PMS_P2;Temp;Humidity;BMP_temperature;BMP_pressure;BME280_temperature;BME280_humidity;BME280_pressure;Samples;Min_cycle;Max_cycle;Signal;HPM_P1;HPM_P2
2023/06/14 00:01:48;;;;;;;17.50;10.90;;;;;;;-128.00;-1.00;-1.00;103132;1257;1003678;-64
2023/06/14 00:04:20;;;;;;;15.10;9.80;;;;;;;-128.00;-1.00;-1.00;103209;1253;1002725;-61
2023/06/14 00:06:50;;;;;;;15.20;9.70;;;;;;;-128.00;-1.00;-1.00;103133;1253;1011096;-63
2023/06/14 00:09:17;;;;;;;11.30;8.60;;;;;;;-128.00;-1.00;-1.00;103124;1257;1011265;-63
2023/06/14 00:11:44;;;;;;;10.50;8.00;;;;;;;-128.00;-1.00;-1.00;103176;1256;1003204;-63
2023/06/14 00:14:11;;;;;;;8.20;7.40;;;;;;;-128.00;-1.00;-1.00;103126;1256;1002399;-62
2023/06/14 00:16:38;;;;;;;14.00;8.90;;;;;;;-128.00;-1.00;-1.00;103131;1253;1002915;-62
2023/06/14 00:19:05;;;;;;;14.40;9.80;;;;;;;-128.00;-1.00;-1.00;103143;1253;1002374;-63
2023/06/14 00:21:32;;;;;;;13.70;8.80;;;;;;;-128.00;-1.00;-1.00;103007;1260;1002585;-64
2023/06/14 00:23:59;;;;;;;18.20;10.60;;;;;;;-128.00;-1.00;-1.00;103168;1257;1002524;-63
2023/06/14 00:26:27;;;;;;;17.80;11.90;;;;;;;-128.00;-1.00;-1.00;103155;1255;1003143;-61
2023/06/14 00:28:54;;;;;;;21.60;13.70;;;;;;;-128.00;-1.00;-1.00;103164;1253;1003168;-62
2023/06/14 00:31:23;;;;;;;28.60;16.70;;;;;;;-128.00;-1.00;-1.00;103109;1253;1010586;-63
2023/06/14 00:33:50;;;;;;;30.20;16.60;;;;;;;-128.00;-1.00;-1.00;103074;1252;1002809;-61
2023/06/14 00:36:16;;;;;;;22.70;15.50;;;;;;;-128.00;-1.00;-1.00;103120;1257;1002610;-63
2023/06/14 00:38:43;;;;;;;26.20;16.00;;;;;;;-128.00;-1.00;-1.00;103093;1256;1002189;-63
2023/06/14 00:41:10;;;;;;;18.60;12.50;;;;;;;-128.00;-1.00;-1.00;103157;1253;1002642;-63
2023/06/14 00:43:37;;;;;;;24.40;17.10;;;;;;;-128.00;-1.00;-1.00;103122;1253;1002750;-64
2023/06/14 00:46:04;;;;;;;21.60;14.60;;;;;;;-128.00;-1.00;-1.00;103130;1257;1002630;-64
2023/06/14 00:48:31;;;;;;;25.40;13.20;;;;;;;-128.00;-1.00;-1.00;103172;1256;1003070;-62
2023/06/14 00:51:01;;;;;;;44.10;27.20;;;;;;;-128.00;-1.00;-1.00;103068;1258;1002679;-62
2023/06/14 00:53:29;;;;;;;53.20;35.50;;;;;;;-128.00;-1.00;-1.00;102892;1254;1012679;-63
2023/06/14 00:55:56;;;;;;;74.80;49.90;;;;;;;-128.00;-1.00;-1.00;103241;1253;1003054;-61
2023/06/14 00:58:23;;;;;;;79.00;49.60;;;;;;;-128.00;-1.00;-1.00;103254;1254;1003040;-63
2023/06/14 01:00:51;;;;;;;49.30;32.80;;;;;;;-128.00;-1.00;-1.00;103401;1253;1002582;-63
2023/06/14 01:03:21;;;;;;;36.70;26.60;;;;;;;-128.00;-1.00;-1.00;103444;1253;1002653;-65
2023/06/14 01:06:01;;;;;;;23.40;18.80;;;;;;;-128.00;-1.00;-1.00;103370;1253;1013363;-64
2023/06/14 01:08:34;;;;;;;18.20;10.80;;;;;;;-128.00;-1.00;-1.00;103338;1254;1010009;-73
2023/06/14 01:11:08;;;;;;;9.90;8.70;;;;;;;-128.00;-1.00;-1.00;103114;1258;1010487;-68
2023/06/14 01:13:37;;;;;;;12.90;9.40;;;;;;;-128.00;-1.00;-1.00;103395;1257;1013165;-67
2023/06/14 01:16:05;;;;;;;16.00;12.20;;;;;;;-128.00;-1.00;-1.00;103096;1260;1012352;-64
2023/06/14 01:18:33;;;;;;;18.10;11.90;;;;;;;-128.00;-1.00;-1.00;103159;1254;1002868;-63
2023/06/14 01:21:05;;;;;;;16.20;12.60;;;;;;;-128.00;-1.00;-1.00;103369;1254;1009744;-67
2023/06/14 01:23:32;;;;;;;17.70;11.70;;;;;;;-128.00;-1.00;-1.00;103379;1254;1011287;-67
2023/06/14 01:26:03;;;;;;;19.40;11.50;;;;;;;-128.00;-1.00;-1.00;103377;1257;1012868;-62
2023/06/14 01:28:33;;;;;;;25.10;13.00;;;;;;;-128.00;-1.00;-1.00;103130;1260;1012461;-62
2023/06/14 01:31:03;;;;;;;18.80;11.90;;;;;;;-128.00;-1.00;-1.00;103168;1254;1013528;-64
2023/06/14 01:33:33;;;;;;;16.60;10.90;;;;;;;-128.00;-1.00;-1.00;103328;1254;1010105;-64
2023/06/14 01:36:00;;;;;;;28.40;12.50;;;;;;;-128.00;-1.00;-1.00;103393;1254;1002300;-64
2023/06/14 01:38:31;;;;;;;26.10;16.00;;;;;;;-128.00;-1.00;-1.00;103128;1259;1012980;-64
2023/06/14 01:40:59;;;;;;;26.70;14.50;;;;;;;-128.00;-1.00;-1.00;103450;1253;1002700;-66
2023/06/14 01:43:27;;;;;;;23.40;16.40;;;;;;;-128.00;-1.00;-1.00;103147;1253;1002528;-64
2023/06/14 01:45:54;;;;;;;20.50;12.70;;;;;;;-128.00;-1.00;-1.00;103381;1254;1002669;-62
2023/06/14 01:48:21;;;;;;;18.60;12.60;;;;;;;-128.00;-1.00;-1.00;103478;1253;1002706;-62
2023/06/14 01:50:49;;;;;;;16.50;10.80;;;;;;;-128.00;-1.00;-1.00;103122;1257;1002891;-63
2023/06/14 01:53:16;;;;;;;23.70;11.30;;;;;;;-128.00;-1.00;-1.00;103467;1255;1012643;-65
2023/06/14 01:55:43;;;;;;;16.60;10.60;;;;;;;-128.00;-1.00;-1.00;103355;1251;1002799;-63
2023/06/14 01:58:11;;;;;;;18.70;10.80;;;;;;;-128.00;-1.00;-1.00;103137;1253;1002864;-61
2023/06/14 02:00:38;;;;;;;16.00;10.50;;;;;;;-128.00;-1.00;-1.00;103021;1254;1002606;-62
2023/06/14 02:03:05;;;;;;;16.00;10.00;;;;;;;-128.00;-1.00;-1.00;103146;1251;1002774;-65
2023/06/14 02:05:32;;;;;;;16.30;10.00;;;;;;;-128.00;-1.00;-1.00;103340;1256;1002698;-63
2023/06/14 02:08:00;;;;;;;11.10;8.70;;;;;;;-128.00;-1.00;-1.00;103057;1253;1012685;-63
2023/06/14 02:10:27;;;;;;;13.20;8.40;;;;;;;-128.00;-1.00;-1.00;103364;1253;1002954;-62
2023/06/14 02:12:55;;;;;;;20.10;9.90;;;;;;;-128.00;-1.00;-1.00;103413;1253;1003332;-63
2023/06/14 02:15:22;;;;;;;11.80;7.80;;;;;;;-128.00;-1.00;-1.00;103394;1257;1002664;-65
2023/06/14 02:17:49;;;;;;;12.70;8.00;;;;;;;-128.00;-1.00;-1.00;103397;1255;1002899;-62
2023/06/14 02:20:16;;;;;;;12.70;8.60;;;;;;;-128.00;-1.00;-1.00;103461;1254;1003071;-62
2023/06/14 02:22:45;;;;;;;15.10;8.10;;;;;;;-128.00;-1.00;-1.00;103375;1254;1002637;-63
2023/06/14 02:25:12;;;;;;;9.70;7.50;;;;;;;-128.00;-1.00;-1.00;103422;1255;1002762;-68
2023/06/14 02:27:40;;;;;;;12.60;7.60;;;;;;;-128.00;-1.00;-1.00;103394;1257;1012664;-62
2023/06/14 02:30:08;;;;;;;9.90;6.60;;;;;;;-128.00;-1.00;-1.00;103329;1257;1002679;-64
2023/06/14 02:32:35;;;;;;;6.80;6.20;;;;;;;-128.00;-1.00;-1.00;103367;1256;1002280;-61
2023/06/14 02:35:02;;;;;;;9.80;7.00;;;;;;;-128.00;-1.00;-1.00;103404;1254;1003112;-62
2023/06/14 02:37:30;;;;;;;12.90;7.00;;;;;;;-128.00;-1.00;-1.00;103360;1254;1002315;-64
2023/06/14 02:39:57;;;;;;;9.20;6.50;;;;;;;-128.00;-1.00;-1.00;103376;1256;1002854;-63
2023/06/14 02:42:24;;;;;;;9.60;6.60;;;;;;;-128.00;-1.00;-1.00;103382;1256;1002571;-64
2023/06/14 02:44:51;;;;;;;8.20;5.80;;;;;;;-128.00;-1.00;-1.00;103387;1254;1002676;-64
2023/06/14 02:47:19;;;;;;;7.40;6.40;;;;;;;-128.00;-1.00;-1.00;102935;1257;1002878;-65
2023/06/14 02:49:49;;;;;;;8.40;6.30;;;;;;;-128.00;-1.00;-1.00;102897;1257;1003327;-64
2023/06/14 02:52:16;;;;;;;13.10;6.00;;;;;;;-128.00;-1.00;-1.00;103132;1260;1012997;-64
2023/06/14 02:54:42;;;;;;;8.50;6.40;;;;;;;-128.00;-1.00;-1.00;102992;1260;1002547;-64
2023/06/14 02:57:10;;;;;;;19.50;7.20;;;;;;;-128.00;-1.00;-1.00;102939;1255;1002915;-61
2023/06/14 02:59:37;;;;;;;9.30;5.90;;;;;;;-128.00;-1.00;-1.00;103033;1255;1002742;-63
2023/06/14 03:02:05;;;;;;;11.50;6.10;;;;;;;-128.00;-1.00;-1.00;102873;1257;1004431;-63
2023/06/14 03:04:36;;;;;;;10.90;6.10;;;;;;;-128.00;-1.00;-1.00;102893;1257;1013111;-63
2023/06/14 03:07:10;;;;;;;8.20;5.50;;;;;;;-128.00;-1.00;-1.00;103370;1255;1012763;-64
2023/06/14 03:09:39;;;;;;;7.60;5.50;;;;;;;-128.00;-1.00;-1.00;103360;1254;1013068;-63
2023/06/14 03:12:07;;;;;;;7.50;4.90;;;;;;;-128.00;-1.00;-1.00;103361;1254;1002585;-66
2023/06/14 03:14:34;;;;;;;12.10;6.10;;;;;;;-128.00;-1.00;-1.00;103356;1256;1002659;-63
2023/06/14 03:17:04;;;;;;;9.20;5.80;;;;;;;-128.00;-1.00;-1.00;103351;1256;1002896;-62
2023/06/14 03:19:32;;;;;;;6.20;5.20;;;;;;;-128.00;-1.00;-1.00;103114;1254;1012997;-63
2023/06/14 03:21:59;;;;;;;8.40;5.30;;;;;;;-128.00;-1.00;-1.00;103358;1254;1002930;-61
2023/06/14 03:24:31;;;;;;;6.60;4.90;;;;;;;-128.00;-1.00;-1.00;103080;1254;1002416;-64
2023/06/14 03:26:58;;;;;;;6.30;5.30;;;;;;;-128.00;-1.00;-1.00;103385;1253;1011036;-63
2023/06/14 03:29:26;;;;;;;7.70;5.20;;;;;;;-128.00;-1.00;-1.00;103380;1257;1002739;-66
2023/06/14 03:32:00;;;;;;;5.50;5.00;;;;;;;-128.00;-1.00;-1.00;103365;1256;1002218;-65
2023/06/14 03:34:34;;;;;;;10.00;5.20;;;;;;;-128.00;-1.00;-1.00;103349;1254;1013250;-62
2023/06/14 03:37:01;;;;;;;8.10;5.20;;;;;;;-128.00;-1.00;-1.00;103188;1254;1002612;-63
2023/06/14 03:39:28;;;;;;;8.50;4.90;;;;;;;-128.00;-1.00;-1.00;102984;1254;1003113;-69
2023/06/14 03:41:55;;;;;;;7.00;5.50;;;;;;;-128.00;-1.00;-1.00;103167;1260;1002463;-64
2023/06/14 03:44:22;;;;;;;9.80;5.70;;;;;;;-128.00;-1.00;-1.00;103133;1257;1002209;-66
2023/06/14 03:46:49;;;;;;;11.90;5.40;;;;;;;-128.00;-1.00;-1.00;103108;1257;1003040;-65
2023/06/14 03:49:17;;;;;;;8.60;5.80;;;;;;;-128.00;-1.00;-1.00;103155;1254;1003022;-63
2023/06/14 03:51:44;;;;;;;6.40;5.20;;;;;;;-128.00;-1.00;-1.00;103393;1254;1002670;-66
2023/06/14 03:54:12;;;;;;;6.40;5.20;;;;;;;-128.00;-1.00;-1.00;103393;1256;1002804;-64
2023/06/14 03:56:59;;;;;;;6.40;4.80;;;;;;;-128.00;-1.00;-1.00;103358;1255;1013282;-63
2023/06/14 03:59:26;;;;;;;7.80;5.20;;;;;;;-128.00;-1.00;-1.00;103348;1253;1002578;-71
2023/06/14 04:01:54;;;;;;;10.90;5.10;;;;;;;-128.00;-1.00;-1.00;102918;1257;1002845;-68
2023/06/14 04:04:21;;;;;;;10.10;5.10;;;;;;;-128.00;-1.00;-1.00;103057;1261;1002437;-65
2023/06/14 04:06:49;;;;;;;;;;;;;;;-128.00;-1.00;-1.00;102763;1263;1013352;-72
2023/06/14 04:09:18;;;;;;;6.90;4.90;;;;;;;-128.00;-1.00;-1.00;103028;1262;1003035;-70
2023/06/14 04:11:45;;;;;;;10.00;5.00;;;;;;;-128.00;-1.00;-1.00;102915;1257;1013924;-63
2023/06/14 04:14:12;;;;;;;9.70;5.20;;;;;;;-128.00;-1.00;-1.00;102894;1257;1002575;-63
2023/06/14 04:16:39;;;;;;;10.90;5.40;;;;;;;-128.00;-1.00;-1.00;102902;1257;1002838;-68
2023/06/14 04:19:06;;;;;;;9.30;5.10;;;;;;;-128.00;-1.00;-1.00;102930;1259;1003047;-66
2023/06/14 04:21:34;;;;;;;9.10;5.10;;;;;;;-128.00;-1.00;-1.00;103112;1254;1005145;-62
2023/06/14 04:24:04;;;;;;;7.30;4.40;;;;;;;-128.00;-1.00;-1.00;103370;1254;1013095;-63
2023/06/14 04:26:33;;;;;;;11.00;4.70;;;;;;;-128.00;-1.00;-1.00;103379;1254;1010900;-68
2023/06/14 04:29:03;;;;;;;10.00;5.00;;;;;;;-128.00;-1.00;-1.00;103361;1254;1003481;-66
2023/06/14 04:31:33;;;;;;;10.40;5.10;;;;;;;-128.00;-1.00;-1.00;103150;1258;1012482;-68
2023/06/14 04:34:01;;;;;;;6.60;4.70;;;;;;;-128.00;-1.00;-1.00;103360;1254;1004401;-62
2023/06/14 04:36:28;;;;;;;7.50;5.30;;;;;;;-128.00;-1.00;-1.00;103360;1254;1002523;-63
2023/06/14 04:38:55;;;;;;;13.70;5.50;;;;;;;-128.00;-1.00;-1.00;103182;1253;1002881;-62
2023/06/14 04:41:28;;;;;;;8.80;4.70;;;;;;;-128.00;-1.00;-1.00;103174;1254;1011703;-64
2023/06/14 04:44:01;;;;;;;7.50;5.50;;;;;;;-128.00;-1.00;-1.00;103022;1259;1012462;-69
2023/06/14 04:46:31;;;;;;;10.00;4.60;;;;;;;-128.00;-1.00;-1.00;103080;1263;1013374;-68
2023/06/14 04:49:02;;;;;;;9.70;5.30;;;;;;;-128.00;-1.00;-1.00;102733;1254;1012474;-67
2023/06/14 04:51:30;;;;;;;6.40;4.30;;;;;;;-128.00;-1.00;-1.00;103390;1254;1011351;-65
2023/06/14 04:53:58;;;;;;;7.00;4.80;;;;;;;-128.00;-1.00;-1.00;103111;1254;1010748;-69
2023/06/14 04:56:26;;;;;;;9.30;4.90;;;;;;;-128.00;-1.00;-1.00;103067;1257;1002670;-61
2023/06/14 04:58:53;;;;;;;10.50;4.70;;;;;;;-128.00;-1.00;-1.00;103253;1257;1002601;-62
2023/06/14 05:01:21;;;;;;;11.80;4.80;;;;;;;-128.00;-1.00;-1.00;103228;1253;1002596;-63
2023/06/14 05:03:49;;;;;;;9.50;4.90;;;;;;;-128.00;-1.00;-1.00;103015;1256;1002500;-67
2023/06/14 05:06:17;;;;;;;6.90;4.40;;;;;;;-128.00;-1.00;-1.00;103077;1253;1002618;-66
2023/06/14 05:08:45;;;;;;;7.50;4.20;;;;;;;-128.00;-1.00;-1.00;103192;1257;1013727;-65
2023/06/14 05:11:13;;;;;;;9.30;4.40;;;;;;;-128.00;-1.00;-1.00;102947;1259;1012925;-69
2023/06/14 05:13:40;;;;;;;7.30;4.30;;;;;;;-128.00;-1.00;-1.00;103315;1253;1002886;-66
2023/06/14 05:16:08;;;;;;;;;;;;;;;-128.00;-1.00;-1.00;103271;1253;1009970;-66
2023/06/14 05:18:35;;;;;;;8.20;4.00;;;;;;;-128.00;-1.00;-1.00;103238;1253;1003057;-62
2023/06/14 05:21:01;;;;;;;6.10;4.30;;;;;;;-128.00;-1.00;-1.00;103204;1258;1002828;-67
2023/06/14 05:23:28;;;;;;;6.70;4.30;;;;;;;-128.00;-1.00;-1.00;103013;1261;1002865;-65
2023/06/14 05:25:56;;;;;;;7.70;3.80;;;;;;;-128.00;-1.00;-1.00;103196;1253;1002799;-65
2023/06/14 05:28:24;;;;;;;7.90;4.30;;;;;;;-128.00;-1.00;-1.00;103300;1253;1010481;-66
2023/06/14 05:30:51;;;;;;;7.30;3.90;;;;;;;-128.00;-1.00;-1.00;103231;1258;1002370;-66
2023/06/14 05:33:18;;;;;;;10.20;4.70;;;;;;;-128.00;-1.00;-1.00;103211;1257;1002795;-66
2023/06/14 05:35:45;;;;;;;6.70;4.10;;;;;;;-128.00;-1.00;-1.00;103177;1258;1003214;-66
2023/06/14 05:38:12;;;;;;;5.00;3.90;;;;;;;-128.00;-1.00;-1.00;103164;1253;1002804;-65
2023/06/14 05:40:39;;;;;;;9.40;4.10;;;;;;;-128.00;-1.00;-1.00;103208;1253;1002934;-70
2023/06/14 05:43:05;;;;;;;8.50;4.10;;;;;;;-128.00;-1.00;-1.00;103158;1257;1003018;-68
2023/06/14 05:45:33;;;;;;;;;;;;;;;-128.00;-1.00;-1.00;103170;1257;1002463;-68
2023/06/14 05:48:00;;;;;;;7.90;4.20;;;;;;;-128.00;-1.00;-1.00;103142;1257;1002787;-67
2023/06/14 05:50:27;;;;;;;8.40;3.60;;;;;;;-128.00;-1.00;-1.00;103245;1253;1002782;-66
2023/06/14 05:52:54;;;;;;;21.40;4.80;;;;;;;-128.00;-1.00;-1.00;103178;1253;1002439;-69
2023/06/14 05:55:21;;;;;;;5.80;4.10;;;;;;;-128.00;-1.00;-1.00;103231;1254;1002677;-66
2023/06/14 05:57:48;;;;;;;9.20;3.60;;;;;;;-128.00;-1.00;-1.00;103233;1259;1002888;-67
2023/06/14 06:00:16;;;;;;;8.00;3.40;;;;;;;-128.00;-1.00;-1.00;103146;1258;1005549;-69
2023/06/14 06:02:43;;;;;;;9.10;3.40;;;;;;;-128.00;-1.00;-1.00;103169;1253;1002615;-69
2023/06/14 06:05:12;;;;;;;7.60;3.40;;;;;;;-128.00;-1.00;-1.00;103229;1253;1002865;-69
2023/06/14 06:07:45;;;;;;;5.00;3.10;;;;;;;-128.00;-1.00;-1.00;103242;1257;1010892;-68
2023/06/14 06:10:11;;;;;;;6.50;3.60;;;;;;;-128.00;-1.00;-1.00;103325;1259;1013476;-68
2023/06/14 06:12:41;;;;;;;5.90;3.30;;;;;;;-128.00;-1.00;-1.00;103181;1257;1002579;-67
2023/06/14 06:15:11;;;;;;;12.40;3.90;;;;;;;-128.00;-1.00;-1.00;103233;1253;1012574;-67
2023/06/14 06:17:39;;;;;;;8.90;3.70;;;;;;;-128.00;-1.00;-1.00;103256;1253;1011063;-64
2023/06/14 06:20:29;;;;;;;14.30;3.70;;;;;;;-128.00;-1.00;-1.00;103253;1253;1011502;-67
2023/06/14 06:22:57;;;;;;;9.70;3.20;;;;;;;-128.00;-1.00;-1.00;103269;1259;1013116;-67
2023/06/14 06:25:27;;;;;;;12.10;3.40;;;;;;;-128.00;-1.00;-1.00;103228;1258;1002243;-69
2023/06/14 06:27:58;;;;;;;16.10;3.60;;;;;;;-128.00;-1.00;-1.00;103294;1253;1013241;-66
2023/06/14 06:30:26;;;;;;;7.50;3.20;;;;;;;-128.00;-1.00;-1.00;103233;1253;1010040;-67
2023/06/14 06:32:53;;;;;;;6.40;3.70;;;;;;;-128.00;-1.00;-1.00;103250;1258;1002590;-70
2023/06/14 06:35:20;;;;;;;8.50;3.50;;;;;;;-128.00;-1.00;-1.00;103262;1257;1002183;-70
2023/06/14 06:37:46;;;;;;;10.80;3.60;;;;;;;-128.00;-1.00;-1.00;103060;1259;1002330;-69
2023/06/14 06:40:13;;;;;;;7.80;3.30;;;;;;;-128.00;-1.00;-1.00;103201;1253;1002531;-68
2023/06/14 06:42:41;;;;;;;6.50;3.60;;;;;;;-128.00;-1.00;-1.00;102911;1253;1002435;-68
2023/06/14 06:45:11;;;;;;;10.20;3.60;;;;;;;-128.00;-1.00;-1.00;103188;1253;1011700;-68
2023/06/14 06:47:37;;;;;;;8.30;3.50;;;;;;;-128.00;-1.00;-1.00;103197;1257;1002825;-66
2023/06/14 06:50:07;;;;;;;5.70;3.10;;;;;;;-128.00;-1.00;-1.00;103209;1257;1002961;-68
2023/06/14 06:52:34;;;;;;;5.60;3.70;;;;;;;-128.00;-1.00;-1.00;103250;1253;1013082;-67
2023/06/14 06:55:03;;;;;;;7.00;3.20;;;;;;;-128.00;-1.00;-1.00;103053;1255;1010517;-67
2023/06/14 06:57:30;;;;;;;6.80;3.30;;;;;;;-128.00;-1.00;-1.00;103284;1253;1002558;-70
2023/06/14 06:59:57;;;;;;;9.00;3.70;;;;;;;-128.00;-1.00;-1.00;103264;1257;1002602;-69
2023/06/14 07:02:24;;;;;;;5.40;3.40;;;;;;;-128.00;-1.00;-1.00;103237;1257;1002871;-67
2023/06/14 07:04:51;;;;;;;8.00;3.60;;;;;;;-128.00;-1.00;-1.00;103109;1253;1002242;-66
2023/06/14 07:07:18;;;;;;;5.30;3.40;;;;;;;-128.00;-1.00;-1.00;103261;1253;1003094;-66
2023/06/14 07:09:45;;;;;;;6.60;3.00;;;;;;;-128.00;-1.00;-1.00;102987;1260;1002388;-69
2023/06/14 07:12:13;;;;;;;7.40;3.30;;;;;;;-128.00;-1.00;-1.00;103244;1256;1002653;-67
2023/06/14 07:14:40;;;;;;;3.30;3.00;;;;;;;-128.00;-1.00;-1.00;103242;1259;1002940;-68
2023/06/14 07:17:07;;;;;;;4.20;2.50;;;;;;;-128.00;-1.00;-1.00;103249;1253;1002559;-69
2023/06/14 07:19:35;;;;;;;5.30;3.30;;;;;;;-128.00;-1.00;-1.00;103269;1253;1010633;-68
2023/06/14 07:22:02;;;;;;;4.60;3.20;;;;;;;-128.00;-1.00;-1.00;103272;1259;1002369;-67
2023/06/14 07:24:30;;;;;;;5.40;3.40;;;;;;;-128.00;-1.00;-1.00;103212;1259;1002394;-66
2023/06/14 07:26:57;;;;;;;6.70;3.00;;;;;;;-128.00;-1.00;-1.00;103188;1259;1002637;-67
2023/06/14 07:29:23;;;;;;;6.50;3.40;;;;;;;-128.00;-1.00;-1.00;103007;1253;1002370;-68
2023/06/14 07:31:50;;;;;;;7.40;3.40;;;;;;;-128.00;-1.00;-1.00;103231;1253;1002742;-68
2023/06/14 07:34:17;;;;;;;7.60;2.80;;;;;;;-128.00;-1.00;-1.00;103228;1258;1002836;-66
2023/06/14 07:36:44;;;;;;;7.10;3.00;;;;;;;-128.00;-1.00;-1.00;103220;1257;1002597;-65
2023/06/14 07:39:12;;;;;;;5.40;3.10;;;;;;;-128.00;-1.00;-1.00;103287;1257;1012846;-67
2023/06/14 07:41:38;;;;;;;7.70;3.30;;;;;;;-128.00;-1.00;-1.00;103036;1253;1002717;-66
2023/06/14 07:44:05;;;;;;;6.20;3.60;;;;;;;-128.00;-1.00;-1.00;103274;1253;1002310;-67
2023/06/14 07:46:34;;;;;;;5.70;3.30;;;;;;;-128.00;-1.00;-1.00;103004;1259;1002833;-66
2023/06/14 07:49:01;;;;;;;6.60;3.40;;;;;;;-128.00;-1.00;-1.00;103276;1259;1013067;-66
2023/06/14 07:51:28;;;;;;;5.70;2.70;;;;;;;-128.00;-1.00;-1.00;103291;1257;1002650;-65
2023/06/14 07:53:56;;;;;;;9.20;3.40;;;;;;;-128.00;-1.00;-1.00;103234;1253;1003491;-68
2023/06/14 07:56:23;;;;;;;5.50;3.50;;;;;;;-128.00;-1.00;-1.00;103324;1253;1002896;-67
2023/06/14 07:58:49;;;;;;;7.80;3.70;;;;;;;-128.00;-1.00;-1.00;103251;1253;1002438;-69
2023/06/14 08:01:16;;;;;;;10.20;3.50;;;;;;;-128.00;-1.00;-1.00;103266;1257;1003107;-69
2023/06/14 08:03:43;;;;;;;6.50;3.80;;;;;;;-128.00;-1.00;-1.00;103295;1257;1002419;-69
2023/06/14 08:06:10;;;;;;;5.90;3.50;;;;;;;-128.00;-1.00;-1.00;103388;1253;1002578;-69
2023/06/14 08:08:37;;;;;;;8.00;3.50;;;;;;;-128.00;-1.00;-1.00;103148;1253;1003016;-67
2023/06/14 08:11:04;;;;;;;5.50;3.30;;;;;;;-128.00;-1.00;-1.00;103059;1254;1002879;-68
2023/06/14 08:13:31;;;;;;;6.30;3.80;;;;;;;-128.00;-1.00;-1.00;103288;1259;1002764;-68
2023/06/14 08:15:58;;;;;;;12.00;4.10;;;;;;;-128.00;-1.00;-1.00;103226;1257;1002584;-67
2023/06/14 08:18:25;;;;;;;5.10;3.50;;;;;;;-128.00;-1.00;-1.00;103300;1253;1002782;-68
2023/06/14 08:20:52;;;;;;;11.00;5.30;;;;;;;-128.00;-1.00;-1.00;103233;1253;1002660;-69
2023/06/14 08:23:20;;;;;;;8.70;3.40;;;;;;;-128.00;-1.00;-1.00;103041;1259;1002567;-75
2023/06/14 08:25:48;;;;;;;7.50;3.50;;;;;;;-128.00;-1.00;-1.00;103248;1268;1012880;-69
2023/06/14 08:28:14;;;;;;;6.60;4.60;;;;;;;-128.00;-1.00;-1.00;103087;1259;1002870;-68
2023/06/14 08:30:42;;;;;;;5.80;4.00;;;;;;;-128.00;-1.00;-1.00;103261;1253;1002729;-70
2023/06/14 08:33:09;;;;;;;8.30;4.10;;;;;;;-128.00;-1.00;-1.00;103226;1253;1002956;-70
2023/06/14 08:35:44;;;;;;;8.20;4.10;;;;;;;-128.00;-1.00;-1.00;103249;1254;1010917;-67
2023/06/14 08:38:11;;;;;;;;;;;;;;;-128.00;-1.00;-1.00;103268;1257;1002702;-68
2023/06/14 08:40:39;;;;;;;5.30;3.30;;;;;;;-128.00;-1.00;-1.00;103243;1256;1002995;-67
2023/06/14 08:43:07;;;;;;;6.50;3.20;;;;;;;-128.00;-1.00;-1.00;103137;1253;1002728;-72
2023/06/14 08:45:34;;;;;;;6.00;3.40;;;;;;;-128.00;-1.00;-1.00;103280;1253;1002815;-69
2023/06/14 08:48:01;;;;;;;7.30;3.40;;;;;;;-128.00;-1.00;-1.00;103297;1253;1002918;-68
2023/06/14 08:50:31;;;;;;;16.70;3.20;;;;;;;-128.00;-1.00;-1.00;103097;1259;1002416;-71
2023/06/14 08:53:02;;;;;;;20.20;3.00;;;;;;;-128.00;-1.00;-1.00;102950;1258;1013624;-70
2023/06/14 08:55:30;;;;;;;8.30;3.00;;;;;;;-128.00;-1.00;-1.00;103272;1253;1012937;-70
2023/06/14 08:58:01;;;;;;;4.40;2.60;;;;;;;-128.00;-1.00;-1.00;103378;1254;1010981;-69
2023/06/14 09:00:28;;;;;;;6.20;3.40;;;;;;;-128.00;-1.00;-1.00;103452;1254;1002745;-69
2023/06/14 09:02:58;;;;;;;4.90;3.40;;;;;;;-128.00;-1.00;-1.00;103351;1256;1002872;-66
2023/06/14 09:05:26;;;;;;;9.40;3.40;;;;;;;-128.00;-1.00;-1.00;103351;1254;1015629;-74
2023/06/14 09:07:56;;;;;;;6.60;3.20;;;;;;;-128.00;-1.00;-1.00;103392;1254;1012333;-69
2023/06/14 09:10:23;;;;;;;6.50;3.00;;;;;;;-128.00;-1.00;-1.00;103241;1253;1010385;-67
2023/06/14 09:12:51;;;;;;;5.20;3.00;;;;;;;-128.00;-1.00;-1.00;103160;1260;1002762;-70
2023/06/14 09:15:17;;;;;;;6.20;2.80;;;;;;;-128.00;-1.00;-1.00;103373;1256;1002899;-68
2023/06/14 09:17:44;;;;;;;7.00;3.70;;;;;;;-128.00;-1.00;-1.00;103318;1256;1002433;-65
2023/06/14 09:20:18;;;;;;;10.60;3.20;;;;;;;-128.00;-1.00;-1.00;103130;1254;1002790;-67
2023/06/14 09:22:46;;;;;;;6.50;3.00;;;;;;;-128.00;-1.00;-1.00;103061;1260;1010451;-67
2023/06/14 09:25:15;;;;;;;5.10;3.20;;;;;;;-128.00;-1.00;-1.00;103363;1254;1002490;-67
2023/06/14 09:27:59;;;;;;;;;;;;;;;-128.00;-1.00;-1.00;103488;1265;1014010;-67
2023/06/14 09:30:27;;;;;;;17.80;6.60;;;;;;;-128.00;-1.00;-1.00;103366;1255;1002263;-68
2023/06/14 09:32:55;;;;;;;7.40;3.30;;;;;;;-128.00;-1.00;-1.00;103018;1257;1002961;-68
2023/06/14 09:35:21;;;;;;;;;;;;;;;-128.00;-1.00;-1.00;102867;1257;1003050;-70
2023/06/14 09:37:48;;;;;;;4.80;2.70;;;;;;;-128.00;-1.00;-1.00;103004;1257;1002866;-69
2023/06/14 09:40:20;;;;;;;7.30;3.30;;;;;;;-128.00;-1.00;-1.00;102943;1259;1003093;-68
2023/06/14 09:42:47;;;;;;;7.00;3.10;;;;;;;-128.00;-1.00;-1.00;102956;1260;1012265;-71
2023/06/14 09:45:19;;;;;;;5.50;3.70;;;;;;;-128.00;-1.00;-1.00;102971;1256;1003721;-67
2023/06/14 09:47:46;;;;;;;23.30;11.40;;;;;;;-128.00;-1.00;-1.00;103015;1257;1011052;-67
2023/06/14 09:50:31;;;;;;;9.80;3.70;;;;;;;-128.00;-1.00;-1.00;102994;1259;1011240;-67
2023/06/14 09:53:02;;;;;;;5.20;2.80;;;;;;;-128.00;-1.00;-1.00;102941;1261;1002843;-68
2023/06/14 09:55:30;;;;;;;3.90;2.90;;;;;;;-128.00;-1.00;-1.00;103033;1261;1013308;-68
2023/06/14 09:57:57;;;;;;;7.00;3.50;;;;;;;-128.00;-1.00;-1.00;103014;1261;1002678;-68
2023/06/14 10:00:24;;;;;;;;;;;;;;;-128.00;-1.00;-1.00;103013;1257;1004351;-70
2023/06/14 10:02:54;;;;;;;11.80;6.00;;;;;;;-128.00;-1.00;-1.00;103015;1260;1002536;-67
2023/06/14 10:05:21;;;;;;;14.20;3.80;;;;;;;-128.00;-1.00;-1.00;103178;1253;1013067;-67
2023/06/14 10:07:53;;;;;;;6.60;3.70;;;;;;;-128.00;-1.00;-1.00;103132;1260;1002245;-71
2023/06/14 10:10:19;;;;;;;9.30;4.40;;;;;;;-128.00;-1.00;-1.00;103185;1258;1013169;-70
2023/06/14 10:12:46;;;;;;;5.40;3.50;;;;;;;-128.00;-1.00;-1.00;103105;1253;1003054;-69
2023/06/14 10:15:52;;;;;;;4.00;2.50;;;;;;;-128.00;-1.00;-1.00;103061;1254;1002614;-66
2023/06/14 10:18:28;;;;;;;6.30;3.60;;;;;;;-128.00;-1.00;-1.00;103182;1257;1012770;-67
2023/06/14 10:21:28;;;;;;;5.70;3.60;;;;;;;-128.00;-1.00;-1.00;103268;1257;1013158;-65
2023/06/14 10:23:56;;;;;;;4.80;2.90;;;;;;;-128.00;-1.00;-1.00;103175;1261;1012586;-70
2023/06/14 10:26:23;;;;;;;5.80;3.10;;;;;;;-128.00;-1.00;-1.00;103177;1253;1002331;-67
2023/06/14 10:28:58;;;;;;;;;;;;;;;-128.00;-1.00;-1.00;103270;1253;1002518;-67
2023/06/14 10:31:45;;;;;;;5.90;3.00;;;;;;;-128.00;-1.00;-1.00;103215;1253;1012723;-69
2023/06/14 10:34:12;;;;;;;4.50;2.40;;;;;;;-128.00;-1.00;-1.00;103215;1257;1012474;-68
2023/06/14 10:36:42;;;;;;;;;;;;;;;-128.00;-1.00;-1.00;103277;1253;1003297;-75
2023/06/14 10:39:19;;;;;;;6.70;3.50;;;;;;;-128.00;-1.00;-1.00;103228;1259;1010251;-75
2023/06/14 10:41:55;;;;;;;3.50;2.60;;;;;;;-128.00;-1.00;-1.00;103132;1254;1011436;-70
2023/06/14 10:44:22;;;;;;;4.50;3.10;;;;;;;-128.00;-1.00;-1.00;103328;1259;1011976;-68
2023/06/14 10:46:52;;;;;;;4.60;2.90;;;;;;;-128.00;-1.00;-1.00;103063;1260;1003325;-70
2023/06/14 10:49:19;;;;;;;6.70;3.30;;;;;;;-128.00;-1.00;-1.00;103112;1255;1013012;-71
2023/06/14 10:51:50;;;;;;;7.00;3.40;;;;;;;-128.00;-1.00;-1.00;103230;1254;1002938;-70
2023/06/14 10:54:17;;;;;;;6.70;3.90;;;;;;;-128.00;-1.00;-1.00;103279;1253;1010234;-66
2023/06/14 10:56:51;;;;;;;9.30;3.60;;;;;;;-128.00;-1.00;-1.00;102712;1264;1002483;-68
2023/06/14 10:59:19;;;;;;;10.50;5.60;;;;;;;-128.00;-1.00;-1.00;102612;1264;1013316;-69
2023/06/14 11:02:17;;;;;;;7.40;4.60;;;;;;;-128.00;-1.00;-1.00;102609;1260;1002670;-67
2023/06/14 11:04:48;;;;;;;11.10;4.30;;;;;;;-128.00;-1.00;-1.00;102605;1261;1010684;-68
2023/06/14 11:07:53;;;;;;;9.50;3.90;;;;;;;-128.00;-1.00;-1.00;102584;1260;1010987;-70
2023/06/14 11:10:40;;;;;;;8.40;4.40;;;;;;;-128.00;-1.00;-1.00;102574;1264;1013595;-69
2023/06/14 11:13:07;;;;;;;11.40;4.40;;;;;;;-128.00;-1.00;-1.00;102597;1264;1012492;-67
2023/06/14 11:15:36;;;;;;;9.70;4.10;;;;;;;-128.00;-1.00;-1.00;102911;1257;1012577;-66
2023/06/14 11:18:07;;;;;;;12.00;3.80;;;;;;;-128.00;-1.00;-1.00;103069;1259;1002625;-70
2023/06/14 11:20:35;;;;;;;6.10;3.40;;;;;;;-128.00;-1.00;-1.00;103079;1254;1012048;-70
2023/06/14 11:23:02;;;;;;;6.90;3.50;;;;;;;-128.00;-1.00;-1.00;102707;1256;1003020;-69